< < Back
Terminal Aerodrome Forecast


Current Version              Previous Versions:   1  2  3  4  5  6  7  8  9  

Terminal Aerodrome Forecast

197
FTUS44 KMOB 271730
TAFPNS
TAF
KPNS 271730Z 2718/2818 34012G20KT P6SM SCT250
     FM280100 33009KT P6SM SKC=

Latest METAR

850
SAUS70 KWBC 271900 RRJ
MTRPNS
METAR KPNS 271853Z 33016G22KT 10SM CLR 19/02 A2994 RMK AO2 SLP140
T01890017


USA.gov is the U.S. government's official web portal to all federal, state and local government web resources and services.